Launceston Airport
YMLT : now visible

Airfield :











YOU CAN JOIN US ON...

 
LOGIN :

Register | Disclaimer

   EN    FR    IT 

 









Legend :    VFR   Marginal VFR   IFR   Intensive IFR   Very Intensive IFR
Visi :
Ceiling :
>= 8 km
>= 3000ft
5 to 8 km
1000 to 3000 ft
1500m to 5 km
500 to 1000 ft
800 to 1500m
200 to 500 ft
< 800m
< 200 ft
Symbols :   Thunderstorms  Fog  Heavy snow  Heavy precipitations  Wind > 20 kt






- Airport Elevation : 562 ft
- IATA code : LST


YMLT - Launceston

CURRENT METAR :
  • 170100Z AUTO 30005KT 9999 // NCD 18/02 Q1017 RF00.0/000.0

EXPIRED METARs :
  • 170030Z AUTO 13004KT 060V200 9999 // NCD 17/03 Q1018 RF00.0/000.0
  • 170000Z AUTO 13004KT 070V200 9999 // NCD 17/02 Q1018
  • 162330Z AUTO 14008KT 9999 // NCD 16/03 Q1018 RF00.0/000.0
  • 162300Z AUTO 14009KT 110V170 9999 // NCD 15/04 Q1019 RF00.0/000.0

TAF TAF YMLT
Valid from the 17 at 00:00 until the 18 at 00:00 UTC


162315Z 1700/1800 14010KT CAVOK
FM170200 VRB05KT CAVOK
FM170600 35010KT CAVOK
FM171400 VRB03KT 9999 FEW035



MET'MAP, your aeronautical weather chart ! - Copyright ORBIFLY December 2007 - Disclaimer

ORBIFLY MET'MAP TEAM :

Programming & Development : Alexandra Zaïnal
Concept & original design : Baudouin d'Aumeries
Assistance for programming : Marc-Olivier Méhu
Technical & hardware support : Manuel Goepfert

Contact : metmap@orbifly.com




SOURCES & CREDITS :

   NOAA       Earth
Advisory